MSC Brianna — 3FXG7 — position and weather

sailwx.info

Track history (hours):
 
Tides and Currents Weather Stations Pressure Air Temp Water Temp Dewpoint Dewpoint Depression Visibility Wind Speed Wind Dir Waves Ship Positions

MSC Brianna

Last reported at 2016-Aug-11 10:23 UTC. Time now 2016-Aug-28 02:19 UTC.
Position N 45°22' W 127°11'.
Warning: this ship's position is 16 days out of date.

Length 245 m; draft 12.4 m.

Type: Ship (hazmat cat A). MMSI: 351766000.

Date/timePositionNaut miles runAvg speedWind from/ knotsBaromVisibWave heightAir tempDewpointWater temp
2016-Aug-11 10:23N 45°22' W 127°11'1011.7
2016-Aug-11 09:33N 45°25' W 126°58'1211.8
2016-Aug-11 08:33N 45°29' W 126°42'1212.0
2016-Aug-11 07:33N 45°34' W 126°26'1311.5
2016-Aug-11 06:27N 45°39' W 126°10'1011.4
2016-Aug-11 05:33N 45°42' W 125°56'1111.3
2016-Aug-11 04:33N 45°47' W 125°41'1211.7
2016-Aug-11 03:32N 45°51' W 125°25'1111.4
2016-Aug-11 02:33N 45°54' W 125°10'1111.2
2016-Aug-11 01:33N 45°59' W 124°55'1111.2
2016-Aug-11 00:33N 46°03' W 124°41'1211.6
2016-Aug-10 23:33N 46°08' W 124°25'1111.5
2016-Aug-10 22:34N 46°12' W 124°10'9 8.6
2016-Aug-10 21:33N 46°13' W 123°57'9 8.5
2016-Aug-10 20:33N 46°13' W 123°45'1212.3
2016-Aug-10 19:33N 46°16' W 123°28'1010.0
2016-Aug-10 18:33N 46°09' W 123°17'1111.4
2016-Aug-10 17:33N 46°08' W 123°01'10 9.6
2016-Aug-10 16:33N 46°01' W 122°52'1110.6
2016-Aug-10 15:33N 45°51' W 122°47'1211.8
2016-Aug-10 14:33N 45°39' W 122°46'1 0.9
2016-Aug-10 13:32N 45°38' W 122°47'0 0.0
2016-Aug-10 12:32N 45°38' W 122°47'0 0.0
2016-Aug-10 11:29N 45°38' W 122°47'0 0.0
2016-Aug-10 10:32N 45°38' W 122°47'0 0.0
2016-Aug-10 09:32N 45°38' W 122°47'0 0.0
2016-Aug-10 08:29N 45°38' W 122°47'0 0.0
2016-Aug-10 07:29N 45°38' W 122°47'0 0.0
2016-Aug-10 06:29N 45°38' W 122°47'0 0.0
2016-Aug-10 05:32N 45°38' W 122°47'0 0.0
2016-Aug-10 04:29N 45°38' W 122°47'0 0.0
2016-Aug-10 03:32N 45°38' W 122°47'0 0.0
2016-Aug-10 02:32N 45°38' W 122°47'0 0.0
2016-Aug-10 01:29N 45°38' W 122°47'0 0.0
2016-Aug-10 00:29N 45°38' W 122°47'1 0.6
2016-Aug-09 23:33N 45°39' W 122°46'2 1.6
2016-Aug-09 22:29N 45°38' W 122°44'0 0.0
2016-Aug-09 21:32N 45°38' W 122°44'0 0.0
2016-Aug-09 20:32N 45°38' W 122°44'0 0.0
2016-Aug-09 19:32N 45°38' W 122°44'0 0.0
2016-Aug-09 18:32N 45°38' W 122°44'0 0.0
2016-Aug-09 17:26N 45°38' W 122°44'0 0.0
2016-Aug-09 16:32N 45°38' W 122°44'0 0.0
2016-Aug-09 15:32N 45°38' W 122°44'0 0.0
2016-Aug-09 14:29N 45°38' W 122°44'0 0.0
2016-Aug-09 13:29N 45°38' W 122°44'0 0.0
2016-Aug-09 12:32N 45°38' W 122°44'0 0.0
2016-Aug-09 11:32N 45°38' W 122°44'0 0.0
2016-Aug-09 10:32N 45°38' W 122°44'0 0.0
2016-Aug-09 09:32N 45°38' W 122°44'0 0.0
2016-Aug-09 08:32N 45°38' W 122°44'0 0.0
2016-Aug-09 07:32N 45°38' W 122°44'0 0.0
2016-Aug-09 06:32N 45°38' W 122°44'0 0.0
2016-Aug-09 04:29N 45°38' W 122°44'0 0.0
2016-Aug-09 03:32N 45°38' W 122°44'0 0.0
2016-Aug-09 02:32N 45°38' W 122°44'0 0.0
2016-Aug-09 01:32N 45°38' W 122°44'0 0.0
2016-Aug-09 00:32N 45°38' W 122°44'0 0.0
2016-Aug-08 23:29N 45°38' W 122°44'0 0.0
2016-Aug-08 22:32N 45°38' W 122°44'0 0.0
2016-Aug-08 21:32N 45°38' W 122°44'0 0.0
2016-Aug-08 20:32N 45°38' W 122°44'0 0.0
2016-Aug-08 19:32N 45°38' W 122°44'0 0.0
2016-Aug-08 18:32N 45°38' W 122°44'0 0.0
2016-Aug-08 17:32N 45°38' W 122°44'0 0.0
2016-Aug-08 16:32N 45°38' W 122°44'0 0.0
2016-Aug-08 15:32N 45°38' W 122°44'0 0.0
2016-Aug-08 14:29N 45°38' W 122°44'0 0.0
2016-Aug-08 13:29N 45°38' W 122°44'0 0.0
2016-Aug-08 12:32N 45°38' W 122°44'0 0.0
2016-Aug-08 11:32N 45°38' W 122°44'0 0.0
2016-Aug-08 10:32N 45°38' W 122°44'0 0.0
2016-Aug-08 09:32N 45°38' W 122°44'0 0.0
2016-Aug-08 08:32N 45°38' W 122°44'0 0.0
2016-Aug-08 07:32N 45°38' W 122°44'0 0.0
2016-Aug-08 06:29N 45°38' W 122°44'0 0.0
2016-Aug-08 05:32N 45°38' W 122°44'0 0.1
2016-Aug-08 04:32N 45°38' W 122°44'0 0.0
2016-Aug-08 03:32N 45°38' W 122°44'0 0.0
2016-Aug-08 02:32N 45°38' W 122°44'0 0.1
2016-Aug-08 01:32N 45°38' W 122°44'0 0.0
2016-Aug-08 00:32N 45°38' W 122°44'0 0.0
2016-Aug-07 23:32N 45°38' W 122°44'0 0.0
2016-Aug-07 22:32N 45°38' W 122°44'0 0.0
2016-Aug-07 21:32N 45°38' W 122°44'0 0.0
2016-Aug-07 20:32N 45°38' W 122°44'0 0.0
2016-Aug-07 19:32N 45°38' W 122°44'0 0.0
2016-Aug-07 18:32N 45°38' W 122°44'0 0.0
2016-Aug-07 17:32N 45°38' W 122°44'0 0.0
2016-Aug-07 16:32N 45°38' W 122°44'0 0.0
2016-Aug-07 15:32N 45°38' W 122°44'2 2.5
2016-Aug-07 14:33N 45°40' W 122°46'1211.8
2016-Aug-07 13:33N 45°52' W 122°47'1110.7
2016-Aug-07 12:34N 46°02' W 122°53'9 9.3
2016-Aug-07 11:34N 46°09' W 123°02'10 9.9
2016-Aug-07 10:33N 46°09' W 123°16'9 9.2
2016-Aug-07 09:33N 46°15' W 123°26'1211.8
2016-Aug-07 08:33N 46°14' W 123°43'1010.3
2016-Aug-07 07:33N 46°14' W 123°58'1010.3
2016-Aug-07 06:33N 46°10' W 124°13'19 9.6
2016-Aug-07 04:33N 46°21' W 124°36'1212.4
2016-Aug-07 03:33N 46°33' W 124°41'1212.5
2016-Aug-07 02:33N 46°45' W 124°47'1212.4
2016-Aug-07 01:33N 46°56' W 124°54'1211.9
2016-Aug-07 00:33N 47°07' W 125°00'1514.4
2016-Aug-06 23:33N 47°21' W 125°07'11 9.6
2016-Aug-06 22:27N 47°32' W 125°09'1111.3
2016-Aug-06 21:30N 47°42' W 125°13'3411.5
2016-Aug-06 18:32N 48°16' W 125°15'1111.4
2016-Aug-06 17:33N 48°27' W 125°16'1211.6
2016-Aug-06 16:33N 48°31' W 124°59'1313.0
2016-Aug-06 15:33N 48°29' W 124°40'1312.9
2016-Aug-06 14:33N 48°25' W 124°22'1212.1
2016-Aug-06 13:33N 48°20' W 124°05'1211.9
2016-Aug-06 12:33N 48°17' W 123°48'1111.0
2016-Aug-06 11:33N 48°16' W 123°31'10 9.8
2016-Aug-06 10:33N 48°23' W 123°22'9 9.5
2016-Aug-06 09:33N 48°30' W 123°13'1312.9
2016-Aug-06 08:34N 48°43' W 123°12'10 9.9
2016-Aug-06 07:33N 48°52' W 123°05'26 8.7
2016-Aug-06 04:33N 49°18' W 123°06'6 5.5
2016-Aug-06 03:33N 49°18' W 122°58'4 3.7
2016-Aug-06 02:33N 49°17' W 122°52'0 0.0
2016-Aug-06 01:33N 49°17' W 122°52'0 0.0
2016-Aug-05 22:30N 49°17' W 122°52'0 0.0
2016-Aug-05 20:30N 49°17' W 122°52'0 0.0
2016-Aug-05 19:33N 49°17' W 122°52'0 0.0
2016-Aug-05 18:33N 49°17' W 122°52'0 0.0
2016-Aug-05 17:30N 49°17' W 122°52'0 0.0
2016-Aug-05 16:30N 49°17' W 122°52'0 0.0
2016-Aug-05 15:33N 49°17' W 122°52'0 0.0
2016-Aug-05 14:24N 49°17' W 122°52'0 0.0
2016-Aug-05 13:24N 49°17' W 122°52'0 0.0
2016-Aug-05 12:30N 49°17' W 122°52'0 0.0
2016-Aug-05 11:24N 49°17' W 122°52'1 0.9
2016-Aug-05 10:33N 49°18' W 122°53'6 6.1
2016-Aug-05 09:33N 49°18' W 123°02'3 2.6
2016-Aug-05 08:33N 49°18' W 123°06'0 0.0
2016-Aug-05 07:33N 49°18' W 123°06'0 0.1
2016-Aug-05 06:33N 49°18' W 123°06'0 0.1
2016-Aug-05 04:33N 49°18' W 123°06'0 0.1
2016-Aug-05 03:33N 49°18' W 123°06'0 0.0
2016-Aug-05 02:33N 49°18' W 123°06'0 0.0
2016-Aug-05 01:33N 49°18' W 123°06'0 0.2
2016-Aug-05 00:33N 49°18' W 123°06'0 0.2
2016-Aug-04 23:33N 49°18' W 123°06'0 0.2
2016-Aug-04 22:30N 49°18' W 123°06'0 0.0
2016-Aug-04 21:33N 49°18' W 123°06'0 0.2
2016-Aug-04 20:33N 49°18' W 123°06'0 0.1
2016-Aug-04 19:33N 49°18' W 123°06'0 0.0
2016-Aug-04 18:33N 49°18' W 123°06'0 0.0
2016-Aug-04 17:33N 49°18' W 123°06'0 0.0
2016-Aug-04 16:33N 49°18' W 123°06'0 0.0
2016-Aug-04 15:33N 49°18' W 123°06'0 0.2
2016-Aug-04 14:33N 49°18' W 123°06'0 0.1
2016-Aug-04 13:33N 49°18' W 123°06'0 0.1
2016-Aug-04 12:33N 49°18' W 123°06'0 0.1
2016-Aug-04 11:33N 49°18' W 123°06'0 0.0
2016-Aug-04 10:33N 49°18' W 123°06'0 0.1
2016-Aug-04 09:33N 49°18' W 123°06'0 0.1
2016-Aug-04 08:30N 49°18' W 123°06'0 0.1
2016-Aug-04 07:33N 49°18' W 123°06'0 0.1
2016-Aug-04 06:33N 49°18' W 123°06'0 0.1
2016-Aug-04 04:33N 49°18' W 123°06'0 0.1
2016-Aug-04 03:33N 49°18' W 123°06'0 0.1
2016-Aug-04 02:33N 49°18' W 123°06'0 0.1
2016-Aug-04 01:33N 49°18' W 123°06'0 0.2
2016-Aug-04 00:33N 49°18' W 123°06'0 0.0
2016-Aug-03 23:33N 49°18' W 123°06'0 0.1
2016-Aug-03 22:33N 49°18' W 123°06'2 2.1
2016-Aug-03 21:33N 49°19' W 123°09'1211.9
2016-Aug-03 20:33N 49°09' W 123°19'1312.9
2016-Aug-03 19:33N 48°58' W 123°10'1212.1
2016-Aug-03 18:33N 48°47' W 123°01'1111.0
2016-Aug-03 17:34N 48°41' W 123°15'1110.8
2016-Aug-03 16:33N 48°31' W 123°11'9 9.2
2016-Aug-03 15:33N 48°23' W 123°18'6 5.8
2016-Aug-03 14:33N 48°19' W 123°25'9 8.8
2016-Aug-03 13:33N 48°13' W 123°35'1111.4
2016-Aug-03 12:33N 48°14' W 123°52'1211.6
2016-Aug-03 11:33N 48°18' W 124°08'1212.0
2016-Aug-03 10:33N 48°23' W 124°25'1212.2
2016-Aug-03 09:33N 48°28' W 124°41'1313.0
2016-Aug-03 08:33N 48°29' W 125°01'1212.5
2016-Aug-03 07:33N 48°29' W 125°20'1312.6
2016-Aug-03 06:33N 48°29' W 125°39'2612.9
2016-Aug-03 04:31N 48°29' W 126°19'  
Track history (hours):
 
Tides and Currents Weather Stations Pressure Air Temp Water Temp Dewpoint Dewpoint Depression Visibility Wind Speed Wind Dir Waves Ship Positions

MSC Brianna

Last reported at 2016-Aug-11 10:23 UTC. Time now 2016-Aug-28 02:19 UTC.
Position N 45°22' W 127°11'.
Warning: this ship's position is 16 days out of date.

Length 245 m; draft 12.4 m.

Type: Ship (hazmat cat A). MMSI: 351766000.

Date/timePositionNaut miles runAvg speedWind from/ knotsBaromVisibWave heightAir tempDewpointWater temp
2016-Aug-11 10:23N 45°22' W 127°11'1011.7
2016-Aug-11 09:33N 45°25' W 126°58'1211.8
2016-Aug-11 08:33N 45°29' W 126°42'1212.0
2016-Aug-11 07:33N 45°34' W 126°26'1311.5
2016-Aug-11 06:27N 45°39' W 126°10'1011.4
2016-Aug-11 05:33N 45°42' W 125°56'1111.3
2016-Aug-11 04:33N 45°47' W 125°41'1211.7
2016-Aug-11 03:32N 45°51' W 125°25'1111.4
2016-Aug-11 02:33N 45°54' W 125°10'1111.2
2016-Aug-11 01:33N 45°59' W 124°55'1111.2
2016-Aug-11 00:33N 46°03' W 124°41'1211.6
2016-Aug-10 23:33N 46°08' W 124°25'1111.5
2016-Aug-10 22:34N 46°12' W 124°10'9 8.6
2016-Aug-10 21:33N 46°13' W 123°57'9 8.5
2016-Aug-10 20:33N 46°13' W 123°45'1212.3
2016-Aug-10 19:33N 46°16' W 123°28'1010.0
2016-Aug-10 18:33N 46°09' W 123°17'1111.4
2016-Aug-10 17:33N 46°08' W 123°01'10 9.6
2016-Aug-10 16:33N 46°01' W 122°52'1110.6
2016-Aug-10 15:33N 45°51' W 122°47'1211.8
2016-Aug-10 14:33N 45°39' W 122°46'1 0.9
2016-Aug-10 13:32N 45°38' W 122°47'0 0.0
2016-Aug-10 12:32N 45°38' W 122°47'0 0.0
2016-Aug-10 11:29N 45°38' W 122°47'0 0.0
2016-Aug-10 10:32N 45°38' W 122°47'0 0.0
2016-Aug-10 09:32N 45°38' W 122°47'0 0.0
2016-Aug-10 08:29N 45°38' W 122°47'0 0.0
2016-Aug-10 07:29N 45°38' W 122°47'0 0.0
2016-Aug-10 06:29N 45°38' W 122°47'0 0.0
2016-Aug-10 05:32N 45°38' W 122°47'0 0.0
2016-Aug-10 04:29N 45°38' W 122°47'0 0.0
2016-Aug-10 03:32N 45°38' W 122°47'0 0.0
2016-Aug-10 02:32N 45°38' W 122°47'0 0.0
2016-Aug-10 01:29N 45°38' W 122°47'0 0.0
2016-Aug-10 00:29N 45°38' W 122°47'1 0.6
2016-Aug-09 23:33N 45°39' W 122°46'2 1.6
2016-Aug-09 22:29N 45°38' W 122°44'0 0.0
2016-Aug-09 21:32N 45°38' W 122°44'0 0.0
2016-Aug-09 20:32N 45°38' W 122°44'0 0.0
2016-Aug-09 19:32N 45°38' W 122°44'0 0.0
2016-Aug-09 18:32N 45°38' W 122°44'0 0.0
2016-Aug-09 17:26N 45°38' W 122°44'0 0.0
2016-Aug-09 16:32N 45°38' W 122°44'0 0.0
2016-Aug-09 15:32N 45°38' W 122°44'0 0.0
2016-Aug-09 14:29N 45°38' W 122°44'0 0.0
2016-Aug-09 13:29N 45°38' W 122°44'0 0.0
2016-Aug-09 12:32N 45°38' W 122°44'0 0.0
2016-Aug-09 11:32N 45°38' W 122°44'0 0.0
2016-Aug-09 10:32N 45°38' W 122°44'0 0.0
2016-Aug-09 09:32N 45°38' W 122°44'0 0.0
2016-Aug-09 08:32N 45°38' W 122°44'0 0.0
2016-Aug-09 07:32N 45°38' W 122°44'0 0.0
2016-Aug-09 06:32N 45°38' W 122°44'0 0.0
2016-Aug-09 04:29N 45°38' W 122°44'0 0.0
2016-Aug-09 03:32N 45°38' W 122°44'0 0.0
2016-Aug-09 02:32N 45°38' W 122°44'0 0.0
2016-Aug-09 01:32N 45°38' W 122°44'0 0.0
2016-Aug-09 00:32N 45°38' W 122°44'0 0.0
2016-Aug-08 23:29N 45°38' W 122°44'0 0.0
2016-Aug-08 22:32N 45°38' W 122°44'0 0.0
2016-Aug-08 21:32N 45°38' W 122°44'0 0.0
2016-Aug-08 20:32N 45°38' W 122°44'0 0.0
2016-Aug-08 19:32N 45°38' W 122°44'0 0.0
2016-Aug-08 18:32N 45°38' W 122°44'0 0.0
2016-Aug-08 17:32N 45°38' W 122°44'0 0.0
2016-Aug-08 16:32N 45°38' W 122°44'0 0.0
2016-Aug-08 15:32N 45°38' W 122°44'0 0.0
2016-Aug-08 14:29N 45°38' W 122°44'0 0.0
2016-Aug-08 13:29N 45°38' W 122°44'0 0.0
2016-Aug-08 12:32N 45°38' W 122°44'0 0.0
2016-Aug-08 11:32N 45°38' W 122°44'0 0.0
2016-Aug-08 10:32N 45°38' W 122°44'0 0.0
2016-Aug-08 09:32N 45°38' W 122°44'0 0.0
2016-Aug-08 08:32N 45°38' W 122°44'0 0.0
2016-Aug-08 07:32N 45°38' W 122°44'0 0.0
2016-Aug-08 06:29N 45°38' W 122°44'0 0.0
2016-Aug-08 05:32N 45°38' W 122°44'0 0.1
2016-Aug-08 04:32N 45°38' W 122°44'0 0.0
2016-Aug-08 03:32N 45°38' W 122°44'0 0.0
2016-Aug-08 02:32N 45°38' W 122°44'0 0.1
2016-Aug-08 01:32N 45°38' W 122°44'0 0.0
2016-Aug-08 00:32N 45°38' W 122°44'0 0.0
2016-Aug-07 23:32N 45°38' W 122°44'0 0.0
2016-Aug-07 22:32N 45°38' W 122°44'0 0.0
2016-Aug-07 21:32N 45°38' W 122°44'0 0.0
2016-Aug-07 20:32N 45°38' W 122°44'0 0.0
2016-Aug-07 19:32N 45°38' W 122°44'0 0.0
2016-Aug-07 18:32N 45°38' W 122°44'0 0.0
2016-Aug-07 17:32N 45°38' W 122°44'0 0.0
2016-Aug-07 16:32N 45°38' W 122°44'0 0.0
2016-Aug-07 15:32N 45°38' W 122°44'2 2.5
2016-Aug-07 14:33N 45°40' W 122°46'1211.8
2016-Aug-07 13:33N 45°52' W 122°47'1110.7
2016-Aug-07 12:34N 46°02' W 122°53'9 9.3
2016-Aug-07 11:34N 46°09' W 123°02'10 9.9
2016-Aug-07 10:33N 46°09' W 123°16'9 9.2
2016-Aug-07 09:33N 46°15' W 123°26'1211.8
2016-Aug-07 08:33N 46°14' W 123°43'1010.3
2016-Aug-07 07:33N 46°14' W 123°58'1010.3
2016-Aug-07 06:33N 46°10' W 124°13'19 9.6
2016-Aug-07 04:33N 46°21' W 124°36'1212.4
2016-Aug-07 03:33N 46°33' W 124°41'1212.5
2016-Aug-07 02:33N 46°45' W 124°47'1212.4
2016-Aug-07 01:33N 46°56' W 124°54'1211.9
2016-Aug-07 00:33N 47°07' W 125°00'1514.4
2016-Aug-06 23:33N 47°21' W 125°07'11 9.6
2016-Aug-06 22:27N 47°32' W 125°09'1111.3
2016-Aug-06 21:30N 47°42' W 125°13'3411.5
2016-Aug-06 18:32N 48°16' W 125°15'1111.4
2016-Aug-06 17:33N 48°27' W 125°16'1211.6
2016-Aug-06 16:33N 48°31' W 124°59'1313.0
2016-Aug-06 15:33N 48°29' W 124°40'1312.9
2016-Aug-06 14:33N 48°25' W 124°22'1212.1
2016-Aug-06 13:33N 48°20' W 124°05'1211.9
2016-Aug-06 12:33N 48°17' W 123°48'1111.0
2016-Aug-06 11:33N 48°16' W 123°31'10 9.8
2016-Aug-06 10:33N 48°23' W 123°22'9 9.5
2016-Aug-06 09:33N 48°30' W 123°13'1312.9
2016-Aug-06 08:34N 48°43' W 123°12'10 9.9
2016-Aug-06 07:33N 48°52' W 123°05'26 8.7
2016-Aug-06 04:33N 49°18' W 123°06'6 5.5
2016-Aug-06 03:33N 49°18' W 122°58'4 3.7
2016-Aug-06 02:33N 49°17' W 122°52'0 0.0
2016-Aug-06 01:33N 49°17' W 122°52'0 0.0
2016-Aug-05 22:30N 49°17' W 122°52'0 0.0
2016-Aug-05 20:30N 49°17' W 122°52'0 0.0
2016-Aug-05 19:33N 49°17' W 122°52'0 0.0
2016-Aug-05 18:33N 49°17' W 122°52'0 0.0
2016-Aug-05 17:30N 49°17' W 122°52'0 0.0
2016-Aug-05 16:30N 49°17' W 122°52'0 0.0
2016-Aug-05 15:33N 49°17' W 122°52'0 0.0
2016-Aug-05 14:24N 49°17' W 122°52'0 0.0
2016-Aug-05 13:24N 49°17' W 122°52'0 0.0
2016-Aug-05 12:30N 49°17' W 122°52'0 0.0
2016-Aug-05 11:24N 49°17' W 122°52'1 0.9
2016-Aug-05 10:33N 49°18' W 122°53'6 6.1
2016-Aug-05 09:33N 49°18' W 123°02'3 2.6
2016-Aug-05 08:33N 49°18' W 123°06'0 0.0
2016-Aug-05 07:33N 49°18' W 123°06'0 0.1
2016-Aug-05 06:33N 49°18' W 123°06'0 0.1
2016-Aug-05 04:33N 49°18' W 123°06'0 0.1
2016-Aug-05 03:33N 49°18' W 123°06'0 0.0
2016-Aug-05 02:33N 49°18' W 123°06'0 0.0
2016-Aug-05 01:33N 49°18' W 123°06'0 0.2
2016-Aug-05 00:33N 49°18' W 123°06'0 0.2
2016-Aug-04 23:33N 49°18' W 123°06'0 0.2
2016-Aug-04 22:30N 49°18' W 123°06'0 0.0
2016-Aug-04 21:33N 49°18' W 123°06'0 0.2
2016-Aug-04 20:33N 49°18' W 123°06'0 0.1
2016-Aug-04 19:33N 49°18' W 123°06'0 0.0
2016-Aug-04 18:33N 49°18' W 123°06'0 0.0
2016-Aug-04 17:33N 49°18' W 123°06'0 0.0
2016-Aug-04 16:33N 49°18' W 123°06'0 0.0
2016-Aug-04 15:33N 49°18' W 123°06'0 0.2
2016-Aug-04 14:33N 49°18' W 123°06'0 0.1
2016-Aug-04 13:33N 49°18' W 123°06'0 0.1
2016-Aug-04 12:33N 49°18' W 123°06'0 0.1
2016-Aug-04 11:33N 49°18' W 123°06'0 0.0
2016-Aug-04 10:33N 49°18' W 123°06'0 0.1
2016-Aug-04 09:33N 49°18' W 123°06'0 0.1
2016-Aug-04 08:30N 49°18' W 123°06'0 0.1
2016-Aug-04 07:33N 49°18' W 123°06'0 0.1
2016-Aug-04 06:33N 49°18' W 123°06'0 0.1
2016-Aug-04 04:33N 49°18' W 123°06'0 0.1
2016-Aug-04 03:33N 49°18' W 123°06'0 0.1
2016-Aug-04 02:33N 49°18' W 123°06'0 0.1
2016-Aug-04 01:33N 49°18' W 123°06'0 0.2
2016-Aug-04 00:33N 49°18' W 123°06'0 0.0
2016-Aug-03 23:33N 49°18' W 123°06'0 0.1
2016-Aug-03 22:33N 49°18' W 123°06'2 2.1
2016-Aug-03 21:33N 49°19' W 123°09'1211.9
2016-Aug-03 20:33N 49°09' W 123°19'1312.9
2016-Aug-03 19:33N 48°58' W 123°10'1212.1
2016-Aug-03 18:33N 48°47' W 123°01'1111.0
2016-Aug-03 17:34N 48°41' W 123°15'1110.8
2016-Aug-03 16:33N 48°31' W 123°11'9 9.2
2016-Aug-03 15:33N 48°23' W 123°18'6 5.8
2016-Aug-03 14:33N 48°19' W 123°25'9 8.8
2016-Aug-03 13:33N 48°13' W 123°35'1111.4
2016-Aug-03 12:33N 48°14' W 123°52'1211.6
2016-Aug-03 11:33N 48°18' W 124°08'1212.0
2016-Aug-03 10:33N 48°23' W 124°25'1212.2
2016-Aug-03 09:33N 48°28' W 124°41'1313.0
2016-Aug-03 08:33N 48°29' W 125°01'1212.5
2016-Aug-03 07:33N 48°29' W 125°20'1312.6
2016-Aug-03 06:33N 48°29' W 125°39'2612.9
2016-Aug-03 04:31N 48°29' W 126°19'  

Dump ship's entire track history